Sheoaks AWS, Australia

3:11 PM AEDT on December 11, 2016 (GMT +1100)
Lethbridge | | Change Station

Elev 620 ft 37.95 °S, 144.13 °E | Updated 8 seconds ago

Partly Cloudy
Partly Cloudy
67.4 °F
Feels Like 67.4 °F
N
2.3
Wind Variable Wind from South
Gusts 2.3 mph

Today
High -- | Low -- °F
--% Chance of Precip.
Yesterday
High -- | Low -- °F
Precip. -- in
Pressure 30.21 in
Visibility 6.2 miles
Clouds Overcast 3800 ft
Dew Point 48 °F
Humidity 49%
Rainfall 0.00 in
Snow Depth Not available.
5:54 AM 8:39 PM
Waxing Gibbous, 88% visible
METAR YMAV 110400Z AUTO 11012KT 110V210 9999 // OVC038 19/09 Q1023
Pressure 30.21 in
Visibility 6.2 miles
Clouds Overcast 3800 ft
Dew Point 48 °F
Humidity 49%
Rainfall 0.00 in
Snow Depth Not available.
5:54 AM 8:39 PM
Waxing Gibbous, 88% visible
METAR YMAV 110400Z AUTO 11012KT 110V210 9999 // OVC038 19/09 Q1023

10-Day Weather Forecast

×

Almanac

Astronomy

Dec. 11, 2016 Rise Set
Actual Time
Civil Twilight
Nautical Twilight
Astronomical Twilight
Moon
Length of Visible Light
Length of Day
Tomorrow will be .
, % of the Moon is Illuminated

Today's Extremes

Country Highs Country Lows

Community

WunderPhotos

Upload Photos

1,956,704 photos uploaded!

WunderBlog® & News

Nearby

Air Quality

  Air Quality AQ Index Pollutant
Not available.

Snow Depth

Station Depth Elevation

Earthquake Activity

City Distance Mag. Time & Date
Minimum magnitude displayed is 2.5.

Coastal Water Temperatures

Place Temperature

Stations

Nearby Weather Stations

Station Location Temp. Windchill Dew Point Humidity Wind Precip. Elev Updated Type